Time;durP1;ratioP1;P1;durP2;ratioP2;P2;SDS_P1;SDS_P2;PMS_P1;PMS_P2;Temp;Humidity;BMP_temperature;BMP_pressure;BME280_temperature;BME280_humidity;BME280_pressure;Samples;Min_cycle;Max_cycle;Signal;HPM_P1;HPM_P2
2022/06/19 00:01:16;;;;;;;;;;;;;;;;;;;;;
2022/06/19 00:14:38;;;;;;;;;;;;;;;;;;;;;
2022/06/19 00:17:26;;;;;;;;;;;;;;;;;;;;;
2022/06/19 00:23:45;;;;;;;;;;;;;;;;;;;;;
2022/06/19 00:29:29;;;;;;;12.00;2.50;;;17.70;79.60;;;;;;6218374;23;20058;-91
2022/06/19 00:36:06;;;;;;;;;;;;;;;;;;;;;
2022/06/19 00:39:05;;;;;;;8.93;2.25;;;17.60;79.80;;;;;;6247272;23;20078;-90
2022/06/19 00:42:28;;;;;;;;;;;;;;;;;;;;;
2022/06/19 00:48:43;;;;;;;;;;;;;;;;;;;;;
2022/06/19 00:55:28;;;;;;;7.18;2.10;;;17.50;79.90;;;;;;6132611;22;20003;-90
2022/06/19 00:58:50;;;;;;;;;;;;;;;;;;;;;
2022/06/19 01:02:37;;;;;;;;;;;;;;;;;;;;;
2022/06/19 01:05:30;;;;;;;;;;;;;;;;;;;;;
2022/06/19 01:08:49;;;;;;;;;;;;;;;;;;;;;
2022/06/19 01:15:44;;;;;;;;;;;;;;;;;;;;;
2022/06/19 01:26:01;;;;;;;;;;;;;;;;;;;;;
2022/06/19 01:50:53;;;;;;;;;;;;;;;;;;;;;
2022/06/19 01:54:34;;;;;;;;;;;;;;;;;;;;;
2022/06/19 02:29:30;;;;;;;;;;;;;;;;;;;;;
2022/06/19 02:39:21;;;;;;;5.90;1.83;;;16.70;70.90;;;;;;5874768;24;20065;-91
2022/06/19 02:42:33;;;;;;;;;;;;;;;;;;;;;
2022/06/19 03:16:34;;;;;;;;;;;;;;;;;;;;;
2022/06/19 03:33:30;;;;;;;;;;;;;;;;;;;;;
2022/06/19 04:24:04;;;;;;;;;;;;;;;;;;;;;
2022/06/19 04:27:42;;;;;;;;;;;;;;;;;;;;;
2022/06/19 04:51:20;;;;;;;;;;;;;;;;;;;;;
2022/06/19 04:54:48;;;;;;;;;;;;;;;;;;;;;
2022/06/19 04:58:01;;;;;;;9.05;2.03;;;16.50;78.20;;;;;;5866376;24;20010;-89
2022/06/19 05:08:07;;;;;;;;;;;;;;;;;;;;;
2022/06/19 05:11:28;;;;;;;;;;;;;;;;;;;;;
2022/06/19 05:15:22;;;;;;;10.43;1.88;;;16.60;78.40;;;;;;5775344;24;20004;-90
2022/06/19 06:44:03;;;;;;;4.57;1.60;;;18.00;70.90;;;;;;5899270;24;20362;-90
2022/06/19 06:50:35;;;;;;;;;;;;;;;;;;;;;
2022/06/19 07:02:47;;;;;;;;;;;;;;;;;;;;;
2022/06/19 07:06:26;;;;;;;4.00;1.30;;;18.10;69.70;;;;;;5882035;24;20097;-88
2022/06/19 07:09:12;;;;;;;;;;;;;;;;;;;;;
2022/06/19 07:12:15;;;;;;;;;;;;;;;;;;;;;
2022/06/19 07:15:44;;;;;;;3.92;1.30;;;18.00;70.30;;;;;;6160312;23;20029;-88
2022/06/19 07:18:12;;;;;;;3.30;0.90;;;18.00;70.90;;;;;;6179447;23;20016;-84
2022/06/19 07:20:38;;;;;;;3.83;1.30;;;18.00;71.20;;;;;;6131289;23;20001;-85
2022/06/19 07:23:04;;;;;;;6.60;1.40;;;17.90;71.50;;;;;;6130056;23;20053;-86
2022/06/19 07:25:33;;;;;;;5.60;1.60;;;17.80;72.10;;;;;;6130359;23;20005;-87
2022/06/19 07:27:59;;;;;;;4.65;1.42;;;17.70;73.10;;;;;;6129300;23;20006;-85
2022/06/19 07:30:26;;;;;;;7.35;1.73;;;17.70;74.00;;;;;;6129976;23;20040;-85
2022/06/19 07:32:56;;;;;;;4.57;1.70;;;17.60;74.80;;;;;;6129728;23;19998;-85
2022/06/19 07:35:22;;;;;;;7.03;1.33;;;17.60;76.00;;;;;;6131088;23;20057;-85
2022/06/19 07:37:48;;;;;;;5.85;1.35;;;17.50;76.90;;;;;;6130778;23;20093;-84
2022/06/19 07:40:17;;;;;;;4.90;1.80;;;17.50;77.80;;;;;;6131615;23;20029;-84
2022/06/19 07:42:43;;;;;;;7.68;1.75;;;17.50;78.80;;;;;;6131338;23;20029;-85
2022/06/19 07:45:12;;;;;;;5.32;1.50;;;17.40;79.30;;;;;;6131332;23;20084;-84
2022/06/19 07:50:29;;;;;;;8.65;2.20;;;17.40;80.50;;;;;;6157553;23;20072;-85
2022/06/19 07:52:57;;;;;;;10.32;1.70;;;17.40;81.50;;;;;;6131174;23;20442;-85
2022/06/19 07:55:28;;;;;;;5.07;1.90;;;17.40;82.00;;;;;;6131520;23;20013;-85
2022/06/19 07:57:54;;;;;;;5.65;1.73;;;17.40;82.60;;;;;;6131527;23;20006;-86
2022/06/19 08:00:28;;;;;;;4.93;1.70;;;17.40;83.00;;;;;;6132818;23;20420;-85
2022/06/19 08:02:57;;;;;;;9.13;2.25;;;17.40;83.50;;;;;;6131320;23;20012;-85
2022/06/19 08:05:26;;;;;;;7.32;2.05;;;17.30;84.10;;;;;;6158255;23;20320;-86
2022/06/19 08:07:53;;;;;;;8.50;1.95;;;17.20;84.70;;;;;;6131979;23;20376;-84
2022/06/19 08:10:42;;;;;;;7.88;1.95;;;17.10;85.40;;;;;;6132585;23;20029;-84
2022/06/19 08:13:08;;;;;;;6.53;2.17;;;17.10;86.50;;;;;;6130778;23;20049;-84
2022/06/19 08:15:34;;;;;;;8.02;2.25;;;16.90;86.90;;;;;;6131982;23;20033;-84
2022/06/19 08:18:01;;;;;;;7.55;2.40;;;16.80;87.50;;;;;;6131823;23;20005;-84
2022/06/19 08:20:27;;;;;;;6.30;1.88;;;16.80;88.40;;;;;;6131106;23;20061;-84
2022/06/19 08:22:54;;;;;;;9.30;2.10;;;16.70;88.90;;;;;;6131021;23;20060;-84
2022/06/19 08:25:22;;;;;;;11.15;2.63;;;16.60;89.70;;;;;;6131262;23;20001;-82
2022/06/19 08:27:49;;;;;;;9.18;2.58;;;16.50;90.00;;;;;;6106662;23;20041;-84
2022/06/19 08:30:35;;;;;;;8.07;1.85;;;16.50;90.20;;;;;;6131364;23;20008;-84
2022/06/19 08:33:02;;;;;;;6.25;1.73;;;16.50;90.40;;;;;;6130747;23;20002;-85
2022/06/19 08:35:32;;;;;;;9.35;2.15;;;16.40;90.40;;;;;;6130906;23;19998;-83
2022/06/19 08:38:04;;;;;;;12.50;2.42;;;16.40;90.60;;;;;;6157247;23;20009;-84
2022/06/19 08:40:42;;;;;;;7.72;2.20;;;16.40;90.70;;;;;;6131277;23;20006;-84
2022/06/19 08:43:35;;;;;;;7.05;2.10;;;16.40;90.80;;;;;;6130651;23;20387;-83
2022/06/19 08:46:15;;;;;;;7.85;1.90;;;16.40;90.90;;;;;;6155353;23;20012;-84
2022/06/19 08:49:06;;;;;;;8.83;2.13;;;16.30;90.90;;;;;;6131965;23;20045;-84
2022/06/19 08:52:04;;;;;;;8.38;2.38;;;16.30;91.00;;;;;;6131864;23;20068;-84
2022/06/19 08:54:41;;;;;;;9.57;2.53;;;16.30;91.10;;;;;;6097056;23;20033;-83
2022/06/19 08:57:26;;;;;;;6.93;2.50;;;16.30;91.10;;;;;;6157328;23;20013;-84
2022/06/19 09:00:07;;;;;;;7.68;1.90;;;16.30;91.10;;;;;;6161211;23;20021;-84
2022/06/19 09:03:11;;;;;;;6.65;1.85;;;16.30;91.00;;;;;;6183422;23;20021;-86
2022/06/19 10:50:06;;;;;;;;;;;;;;;;;;;;;
